Time;durP1;ratioP1;P1;durP2;ratioP2;P2;SDS_P1;SDS_P2;PMS_P1;PMS_P2;Temp;Humidity;BMP_temperature;BMP_pressure;BME280_temperature;BME280_humidity;BME280_pressure;Samples;Min_cycle;Max_cycle;Signal;HPM_P1;HPM_P2
2023/06/04 18:58:39;;;;;;;9.00;3.30;;;;;;;16.33;100.00;102125.34;5082164;27;20428;-72
2023/06/04 19:01:06;;;;;;;7.55;3.40;;;;;;;16.30;100.00;102130.91;5032033;28;20036;-69
2023/06/04 19:03:33;;;;;;;8.27;3.75;;;;;;;16.26;100.00;102125.69;5061542;28;21196;-70
2023/06/04 19:05:59;;;;;;;9.98;4.15;;;;;;;16.22;100.00;102137.63;5057161;28;20086;-70
2023/06/04 19:08:26;;;;;;;9.48;3.55;;;;;;;16.14;100.00;102125.53;5042136;28;20041;-70
2023/06/04 19:10:54;;;;;;;7.65;3.80;;;;;;;16.00;100.00;102123.66;5041696;28;20043;-69
2023/06/04 19:13:20;;;;;;;9.07;3.45;;;;;;;15.92;100.00;102125.91;5035161;28;20056;-69
2023/06/04 19:15:49;;;;;;;8.88;4.43;;;;;;;15.72;100.00;102121.66;5014836;28;20046;-70
2023/06/04 19:18:15;;;;;;;9.90;4.00;;;;;;;15.58;100.00;102117.03;5004303;28;20442;-70
2023/06/04 19:20:41;;;;;;;10.20;3.50;;;;;;;15.43;100.00;102116.06;4996309;28;20125;-69
2023/06/04 19:23:08;;;;;;;9.20;3.55;;;;;;;15.35;100.00;102119.19;4992667;28;20084;-69
2023/06/04 19:25:34;;;;;;;7.80;3.65;;;;;;;15.27;100.00;102132.22;5016850;28;20038;-69
2023/06/04 19:28:01;;;;;;;7.97;3.63;;;;;;;15.23;100.00;102133.34;5014826;28;20018;-68
2023/06/04 19:30:28;;;;;;;8.90;3.47;;;;;;;15.16;100.00;102140.00;4997807;28;20054;-69
2023/06/04 19:32:54;;;;;;;7.63;3.70;;;;;;;15.11;100.00;102141.13;5015019;28;20052;-68
2023/06/04 19:35:20;;;;;;;13.20;4.40;;;;;;;15.00;100.00;102143.47;5013737;28;20069;-69
2023/06/04 19:37:47;;;;;;;9.23;3.72;;;;;;;14.97;100.00;102143.66;5030607;28;20161;-69
2023/06/04 19:40:17;;;;;;;5.90;3.75;;;;;;;14.92;100.00;102143.03;5016577;28;20133;-69
2023/06/04 19:42:44;;;;;;;6.25;3.38;;;;;;;14.88;100.00;102136.09;5000520;28;20486;-70
2023/06/04 19:45:11;;;;;;;13.27;3.80;;;;;;;14.88;100.00;102150.38;4978546;28;20044;-71
2023/06/04 19:47:37;;;;;;;9.48;4.13;;;;;;;14.90;100.00;102145.78;5021698;28;20038;-70
2023/06/04 19:50:04;;;;;;;9.45;3.50;;;;;;;14.79;100.00;102155.38;5035676;28;20052;-69
2023/06/04 19:52:30;;;;;;;9.65;5.05;;;;;;;14.76;100.00;102152.84;4998993;28;20045;-69
2023/06/04 19:54:57;;;;;;;10.07;4.93;;;;;;;14.80;100.00;102152.63;5013338;28;20389;-69
2023/06/04 19:57:23;;;;;;;7.03;3.45;;;;;;;14.77;100.00;102158.16;5003412;28;20038;-69
2023/06/04 19:59:50;;;;;;;9.80;3.80;;;;;;;14.78;100.00;102161.69;5003794;28;20093;-68
2023/06/04 20:02:35;;;;;;;9.25;4.28;;;;;;;14.80;100.00;102159.78;4999640;28;20764;-76
2023/06/04 20:05:02;;;;;;;15.13;3.90;;;;;;;14.77;100.00;102157.28;4991944;28;20038;-69
2023/06/04 20:07:28;;;;;;;14.20;3.97;;;;;;;14.77;100.00;102168.91;4980261;28;20086;-72
2023/06/04 20:09:55;;;;;;;11.85;4.05;;;;;;;14.75;100.00;102164.56;4982556;28;20117;-70
2023/06/04 20:12:22;;;;;;;10.38;4.20;;;;;;;14.76;100.00;102171.66;4992411;28;20034;-68
2023/06/04 20:14:49;;;;;;;7.20;3.92;;;;;;;14.75;100.00;102172.63;4969747;28;20042;-68
2023/06/04 20:17:16;;;;;;;9.35;4.63;;;;;;;14.72;100.00;102171.84;4981473;28;20053;-69
2023/06/04 20:19:42;;;;;;;9.57;3.65;;;;;;;14.58;100.00;102168.97;4985969;28;20026;-70
2023/06/04 20:22:08;;;;;;;9.40;4.18;;;;;;;14.65;100.00;102181.16;4965974;28;20049;-69
2023/06/04 20:24:37;;;;;;;10.82;4.53;;;;;;;14.66;100.00;102190.94;4982383;28;20350;-70
2023/06/04 20:27:04;;;;;;;7.70;4.15;;;;;;;14.59;100.00;102191.34;4969846;28;20046;-69
2023/06/04 20:29:31;;;;;;;12.48;4.70;;;;;;;14.50;100.00;102189.94;4979318;28;20038;-70
2023/06/04 20:31:57;;;;;;;9.85;3.97;;;;;;;14.55;100.00;102182.53;4982357;28;20138;-69
2023/06/04 20:34:23;;;;;;;10.80;4.03;;;;;;;14.57;100.00;102193.22;4970222;28;20042;-69
2023/06/04 20:36:55;;;;;;;9.00;4.03;;;;;;;14.52;100.00;102197.00;4976134;28;20031;-70
2023/06/04 20:39:39;;;;;;;10.35;4.20;;;;;;;14.49;100.00;102196.28;4990905;28;20057;-69
2023/06/04 20:42:06;;;;;;;9.48;4.70;;;;;;;14.49;100.00;102188.22;4993159;28;20052;-70
2023/06/04 20:44:32;;;;;;;13.63;4.97;;;;;;;14.49;100.00;102196.28;4982913;28;20487;-67
2023/06/04 20:46:59;;;;;;;10.15;4.10;;;;;;;14.40;100.00;102194.06;4970676;28;20030;-68
2023/06/04 20:49:25;;;;;;;7.47;4.10;;;;;;;14.28;100.00;102196.41;4965945;28;20042;-70
2023/06/04 20:51:51;;;;;;;8.93;4.60;;;;;;;14.31;100.00;102198.97;4984144;28;20038;-69
2023/06/04 20:54:18;;;;;;;10.82;4.03;;;;;;;14.23;100.00;102201.13;4968267;28;20073;-69
2023/06/04 20:56:44;;;;;;;12.18;4.65;;;;;;;14.25;100.00;102199.25;4976288;28;20043;-69
2023/06/04 20:59:10;;;;;;;9.00;4.82;;;;;;;14.25;100.00;102209.97;4987501;28;20064;-68
2023/06/04 21:01:37;;;;;;;7.28;4.00;;;;;;;14.09;100.00;102212.56;4983860;28;20105;-68
2023/06/04 21:04:03;;;;;;;9.75;4.78;;;;;;;14.04;100.00;102206.53;4984530;28;20027;-68
2023/06/04 21:06:30;;;;;;;10.98;5.38;;;;;;;14.00;100.00;102210.31;4984197;28;20034;-69
2023/06/04 21:08:56;;;;;;;12.35;4.88;;;;;;;14.05;100.00;102207.41;4990784;28;20482;-68
2023/06/04 21:11:22;;;;;;;9.75;4.75;;;;;;;13.95;100.00;102210.53;4984907;28;20041;-69
2023/06/04 21:13:48;;;;;;;10.90;4.97;;;;;;;13.87;100.00;102212.72;4987825;28;20134;-69
2023/06/04 21:16:15;;;;;;;11.07;4.82;;;;;;;13.76;100.00;102207.84;4980982;28;20049;-68
2023/06/04 21:18:41;;;;;;;13.63;6.38;;;;;;;13.68;100.00;102214.50;4985330;28;20050;-69
2023/06/04 21:21:08;;;;;;;10.43;5.32;;;;;;;13.60;100.00;102225.59;4964659;28;20097;-69
2023/06/04 21:23:34;;;;;;;11.18;5.05;;;;;;;13.57;100.00;102215.03;4979926;28;20058;-69
2023/06/04 21:26:00;;;;;;;11.65;5.13;;;;;;;13.55;100.00;102215.09;4990258;28;20037;-69
2023/06/04 21:28:27;;;;;;;14.48;5.30;;;;;;;13.51;100.00;102218.88;4964961;28;20118;-69
2023/06/04 21:30:53;;;;;;;11.10;4.68;;;;;;;13.46;100.00;102220.88;4977977;28;20030;-69
2023/06/04 21:33:19;;;;;;;9.82;4.93;;;;;;;-144.87;100.00;61487.56;4993382;28;20109;-69
2023/06/04 21:35:46;;;;;;;8.98;4.93;;;;;;;-144.87;100.00;61487.56;4979445;28;20042;-69
2023/06/04 21:38:12;;;;;;;9.65;5.05;;;;;;;-144.87;100.00;61487.56;4977912;28;20066;-69
2023/06/04 21:40:38;;;;;;;12.48;4.85;;;;;;;-144.87;100.00;61487.56;4979657;28;20057;-69
2023/06/04 21:43:04;;;;;;;14.15;5.55;;;;;;;-144.87;100.00;61487.56;4965010;28;20030;-69
2023/06/04 21:45:31;;;;;;;10.63;5.05;;;;;;;-144.87;100.00;61487.56;4963595;28;20502;-69
2023/06/04 21:47:57;;;;;;;11.20;5.43;;;;;;;-144.87;100.00;61487.56;4964153;28;20075;-69
2023/06/04 21:50:23;;;;;;;11.88;5.28;;;;;;;-144.87;100.00;61487.56;4968941;28;20058;-69
2023/06/04 21:52:49;;;;;;;8.98;5.28;;;;;;;-144.87;100.00;61487.56;4980956;28;20034;-70
2023/06/04 21:55:16;;;;;;;11.02;5.60;;;;;;;-144.87;100.00;61487.56;4988449;28;20039;-70
2023/06/04 21:57:42;;;;;;;14.13;6.00;;;;;;;-144.87;100.00;61487.56;4981508;28;20042;-70
2023/06/04 22:00:09;;;;;;;12.93;5.65;;;;;;;-144.87;100.00;61487.56;4983971;28;20482;-69
2023/06/04 22:02:41;;;;;;;15.60;6.00;;;;;;;-144.87;100.00;61487.56;4968039;28;20073;-69
2023/06/04 22:05:07;;;;;;;11.45;6.20;;;;;;;-144.87;100.00;61487.56;4966565;28;20042;-70
2023/06/04 22:07:34;;;;;;;11.10;5.85;;;;;;;-144.87;100.00;61487.56;4984647;28;20046;-69
2023/06/04 22:10:01;;;;;;;13.27;6.07;;;;;;;-144.87;100.00;61487.56;4977827;28;20054;-69
2023/06/04 22:12:28;;;;;;;15.77;5.95;;;;;;;-144.87;100.00;61487.56;4979047;28;20538;-69
2023/06/04 22:14:54;;;;;;;16.92;6.18;;;;;;;-144.87;100.00;61487.56;4969200;28;20038;-69
2023/06/04 22:17:20;;;;;;;18.23;6.75;;;;;;;-144.87;100.00;61487.56;4983594;28;20125;-69
2023/06/04 22:19:46;;;;;;;13.07;6.15;;;;;;;-144.87;100.00;61487.56;4967890;28;20039;-69
2023/06/04 22:22:13;;;;;;;12.00;6.28;;;;;;;-144.87;100.00;61487.56;4980087;28;20030;-69
2023/06/04 22:24:40;;;;;;;17.13;7.45;;;;;;;-144.87;100.00;61487.56;4964923;28;20531;-68
2023/06/04 22:27:06;;;;;;;14.05;6.72;;;;;;;-144.87;100.00;61487.56;4984802;28;20058;-70
2023/06/04 22:29:32;;;;;;;13.93;6.93;;;;;;;-144.87;100.00;61487.56;4978811;28;20031;-69
2023/06/04 22:31:58;;;;;;;15.85;6.97;;;;;;;-144.87;100.00;61487.56;4980488;28;20102;-69
2023/06/04 22:34:25;;;;;;;13.32;6.53;;;;;;;-144.87;100.00;61487.56;4982721;28;20487;-68
2023/06/04 22:36:51;;;;;;;12.93;6.30;;;;;;;-144.87;100.00;61487.56;4975094;28;20026;-69
2023/06/04 22:39:18;;;;;;;18.80;6.60;;;;;;;-144.87;100.00;61487.56;4997324;28;20034;-69
2023/06/04 22:41:44;;;;;;;15.95;7.20;;;;;;;-144.87;100.00;61487.56;4975651;28;20088;-70
2023/06/04 22:44:11;;;;;;;12.45;7.22;;;;;;;-144.87;100.00;61487.56;4987432;28;20458;-69
2023/06/04 22:46:37;;;;;;;14.90;6.95;;;;;;;-144.87;100.00;61487.56;4961205;28;20103;-69
2023/06/04 22:49:03;;;;;;;11.95;6.70;;;;;;;-144.87;100.00;61487.56;4985333;28;20034;-69
2023/06/04 22:51:29;;;;;;;14.30;7.32;;;;;;;-144.87;100.00;61487.56;4959601;28;20030;-68
2023/06/04 22:53:56;;;;;;;15.73;7.32;;;;;;;-144.87;100.00;61487.56;4969186;28;20050;-69
2023/06/04 22:56:22;;;;;;;13.93;6.80;;;;;;;-144.87;100.00;61487.56;4951255;28;20035;-69
2023/06/04 22:58:49;;;;;;;13.57;7.07;;;;;;;-144.87;100.00;61487.56;4991602;28;20050;-69
2023/06/04 23:01:16;;;;;;;12.27;6.90;;;;;;;-144.87;100.00;61487.56;4977491;28;20439;-70
2023/06/04 23:03:44;;;;;;;15.40;7.40;;;;;;;-144.87;100.00;61487.56;4963839;28;20105;-69
2023/06/04 23:06:11;;;;;;;10.95;6.90;;;;;;;-144.87;100.00;61487.56;4955503;28;20031;-69
2023/06/04 23:08:37;;;;;;;13.43;7.68;;;;;;;-144.87;100.00;61487.56;4964645;28;20033;-69
2023/06/04 23:11:04;;;;;;;12.07;7.35;;;;;;;-144.87;100.00;61487.56;4981322;28;20030;-70
2023/06/04 23:13:31;;;;;;;12.93;7.45;;;;;;;-144.87;100.00;61487.56;4974029;28;20121;-70
2023/06/04 23:15:57;;;;;;;15.13;7.97;;;;;;;-144.87;100.00;61487.56;4958696;28;20771;-70
2023/06/04 23:18:25;;;;;;;14.65;8.13;;;;;;;-144.87;100.00;61487.56;4976753;28;20034;-69
2023/06/04 23:20:51;;;;;;;18.73;8.05;;;;;;;-144.87;100.00;61487.56;4960713;28;20451;-69
2023/06/04 23:23:17;;;;;;;13.85;7.65;;;;;;;-144.87;100.00;61487.56;4964895;28;20042;-69
2023/06/04 23:25:43;;;;;;;16.27;8.35;;;;;;;-144.87;100.00;61487.56;4971317;28;20034;-69
2023/06/04 23:28:10;;;;;;;17.13;8.63;;;;;;;-144.87;100.00;61487.56;4976696;28;20064;-69
2023/06/04 23:30:36;;;;;;;17.83;8.82;;;;;;;-144.87;100.00;61487.56;4951668;28;20089;-69
2023/06/04 23:33:02;;;;;;;13.65;8.68;;;;;;;-144.87;100.00;61487.56;4979563;28;20141;-69
2023/06/04 23:35:29;;;;;;;15.38;8.50;;;;;;;-144.87;100.00;61487.56;4980636;28;20039;-69
2023/06/04 23:37:55;;;;;;;16.27;9.32;;;;;;;-144.87;100.00;61487.56;4974608;28;20085;-70
2023/06/04 23:40:21;;;;;;;14.15;8.90;;;;;;;-144.87;100.00;61487.56;4971576;28;20042;-69
2023/06/04 23:42:47;;;;;;;12.30;8.75;;;;;;;-144.87;100.00;61487.56;4965044;28;20058;-69
2023/06/04 23:45:14;;;;;;;16.70;9.48;;;;;;;-144.87;100.00;61487.56;4963121;28;20035;-70
2023/06/04 23:47:41;;;;;;;18.85;9.40;;;;;;;-144.87;100.00;61487.56;4973056;28;20034;-69
2023/06/04 23:50:08;;;;;;;16.67;10.02;;;;;;;-144.87;100.00;61487.56;4978441;28;20039;-70
2023/06/04 23:52:36;;;;;;;14.70;9.25;;;;;;;-144.87;100.00;61487.56;4982684;28;20399;-69
2023/06/04 23:55:03;;;;;;;18.48;10.43;;;;;;;-144.87;100.00;61487.56;4971561;28;20039;-69
2023/06/04 23:57:29;;;;;;;14.75;9.85;;;;;;;-144.87;100.00;61487.56;4983730;28;20046;-70
2023/06/04 23:59:56;;;;;;;21.17;9.98;;;;;;;-144.87;100.00;61487.56;5021015;28;20045;-69
